createdAt,value
2017-07-19T00:01:53.470Z,50.00
2017-07-19T00:04:19.878Z,50.40
2017-07-19T00:06:46.269Z,50.90
2017-07-19T00:09:12.599Z,49.80
2017-07-19T00:11:42.173Z,50.70
2017-07-19T00:14:08.540Z,50.50
2017-07-19T00:16:34.923Z,51.20
2017-07-19T00:19:01.266Z,50.30
2017-07-19T00:21:27.640Z,50.20
2017-07-19T00:23:54.005Z,49.90
2017-07-19T00:26:20.374Z,51.40
2017-07-19T00:28:48.339Z,51.30
2017-07-19T00:31:14.720Z,52.10
2017-07-19T00:33:41.112Z,52.50
2017-07-19T00:36:07.470Z,52.10
2017-07-19T00:38:33.900Z,52.10
2017-07-19T00:41:00.259Z,52.10
2017-07-19T00:43:26.597Z,53.50
2017-07-19T00:48:25.300Z,52.30
2017-07-19T00:50:51.661Z,51.90
2017-07-19T00:53:18.013Z,51.80
2017-07-19T00:55:44.351Z,52.60
2017-07-19T00:58:10.694Z,53.50
2017-07-19T01:00:37.024Z,53.70
2017-07-19T01:03:03.416Z,53.30
2017-07-19T01:05:29.737Z,52.50
2017-07-19T01:07:57.113Z,52.70
2017-07-19T01:10:23.448Z,52.60
2017-07-19T01:12:49.793Z,53.60
2017-07-19T01:15:16.840Z,51.70
2017-07-19T01:17:43.946Z,53.00
2017-07-19T01:20:10.319Z,53.00
2017-07-19T01:22:37.419Z,52.90
2017-07-19T01:25:03.804Z,52.90
2017-07-19T01:27:30.189Z,52.00
2017-07-19T01:29:56.508Z,52.20
2017-07-19T01:32:22.867Z,53.20
2017-07-19T01:34:49.207Z,52.60
2017-07-19T01:37:15.526Z,54.30
2017-07-19T01:39:42.079Z,53.80
2017-07-19T01:42:08.410Z,53.60
2017-07-19T01:44:34.761Z,54.90
2017-07-19T01:47:02.249Z,55.20
2017-07-19T01:49:28.596Z,54.90
2017-07-19T01:51:55.013Z,55.40
2017-07-19T01:54:21.388Z,54.90
2017-07-19T01:56:47.732Z,55.70
2017-07-19T01:59:14.104Z,56.20
2017-07-19T02:01:45.596Z,55.60
2017-07-19T02:04:11.924Z,55.50
2017-07-19T02:06:38.269Z,56.30
2017-07-19T02:09:04.613Z,56.30
2017-07-19T02:11:30.953Z,56.80
2017-07-19T02:13:57.311Z,57.20
2017-07-19T02:16:23.648Z,57.40
2017-07-19T02:18:50.006Z,56.60
2017-07-19T02:21:16.348Z,57.10
2017-07-19T02:23:46.150Z,56.30
2017-07-19T02:26:13.294Z,57.30
2017-07-19T02:28:39.639Z,56.90
2017-07-19T02:31:05.994Z,57.20
2017-07-19T02:33:32.344Z,57.60
2017-07-19T02:35:58.744Z,57.50
2017-07-19T02:38:27.961Z,57.70
2017-07-19T02:40:54.363Z,58.60
2017-07-19T02:43:20.721Z,58.10
2017-07-19T02:45:47.092Z,58.50
2017-07-19T02:48:17.718Z,58.60
2017-07-19T02:50:44.048Z,58.40
2017-07-19T02:53:10.406Z,58.20
2017-07-19T02:55:36.764Z,58.90
2017-07-19T03:00:34.274Z,59.00
2017-07-19T03:03:00.638Z,59.10
2017-07-19T03:05:26.983Z,58.30
2017-07-19T03:07:53.387Z,58.90
2017-07-19T03:10:19.757Z,58.30
2017-07-19T03:12:46.117Z,58.40
2017-07-19T03:15:12.752Z,58.90
2017-07-19T03:17:39.816Z,59.00
2017-07-19T03:20:06.161Z,59.10
2017-07-19T03:22:44.732Z,59.40
2017-07-19T03:25:13.625Z,59.10
2017-07-19T03:27:40.020Z,58.70
2017-07-19T03:30:08.163Z,59.90
2017-07-19T03:32:34.564Z,59.20
2017-07-19T03:35:00.905Z,58.80
2017-07-19T03:37:27.224Z,60.10
2017-07-19T03:39:56.838Z,59.60
2017-07-19T03:42:23.426Z,60.00
2017-07-19T03:44:50.030Z,59.90
2017-07-19T03:47:16.646Z,59.90
2017-07-19T03:49:43.202Z,60.20
2017-07-19T03:52:09.861Z,59.60
2017-07-19T03:54:36.420Z,60.20
2017-07-19T03:57:06.111Z,59.60
2017-07-19T03:59:32.652Z,60.30
2017-07-19T04:01:59.231Z,60.40
2017-07-19T04:04:26.513Z,59.80
2017-07-19T04:06:53.845Z,60.40
2017-07-19T04:09:20.419Z,60.60
2017-07-19T04:11:46.981Z,60.40
2017-07-19T04:14:13.594Z,59.80
2017-07-19T04:16:40.189Z,59.70
2017-07-19T04:19:07.409Z,59.90
2017-07-19T04:21:34.719Z,59.50
2017-07-19T04:24:01.282Z,59.50
2017-07-19T04:26:27.829Z,61.00
2017-07-19T04:28:54.445Z,60.00
2017-07-19T04:31:20.902Z,60.40
2017-07-19T04:33:52.699Z,59.90
2017-07-19T04:36:19.276Z,59.20
2017-07-19T04:38:52.576Z,59.30
2017-07-19T04:41:19.197Z,59.50
2017-07-19T04:43:45.771Z,59.10
2017-07-19T04:46:12.382Z,59.30
2017-07-19T04:48:38.927Z,59.30
2017-07-19T04:51:05.495Z,59.30
2017-07-19T04:53:32.811Z,58.20
2017-07-19T04:55:59.442Z,58.20
2017-07-19T04:58:26.075Z,58.70
2017-07-19T05:00:52.615Z,58.00
2017-07-19T05:03:19.192Z,58.50
2017-07-19T05:05:45.731Z,58.90
2017-07-19T05:08:13.610Z,58.70
2017-07-19T05:10:40.169Z,58.00
2017-07-19T05:13:06.744Z,58.30
2017-07-19T05:15:33.306Z,58.70
2017-07-19T05:17:59.885Z,57.80
2017-07-19T05:20:26.458Z,57.50
2017-07-19T05:22:53.689Z,56.60
2017-07-19T05:25:21.836Z,56.50
2017-07-19T05:27:48.433Z,56.40
2017-07-19T05:30:15.049Z,56.80
2017-07-19T05:32:41.512Z,56.60
2017-07-19T05:35:08.012Z,56.90
2017-07-19T05:37:34.555Z,56.60
2017-07-19T05:40:04.464Z,55.80
2017-07-19T05:42:30.967Z,56.20
2017-07-19T05:44:57.543Z,55.90
2017-07-19T05:47:24.112Z,55.70
2017-07-19T05:49:50.688Z,56.10
2017-07-19T05:52:17.324Z,56.50
2017-07-19T05:54:50.028Z,56.10
2017-07-19T05:57:16.644Z,56.10
2017-07-19T05:59:43.226Z,56.10
2017-07-19T06:02:09.806Z,55.90
2017-07-19T06:04:36.576Z,56.50
2017-07-19T06:07:03.115Z,56.10
2017-07-19T06:09:29.757Z,55.50
2017-07-19T06:11:56.351Z,55.00
2017-07-19T06:14:22.958Z,54.60
2017-07-19T06:16:49.532Z,54.50
2017-07-19T06:19:16.108Z,54.40
2017-07-19T06:21:42.675Z,54.50
2017-07-19T06:24:09.217Z,53.90
2017-07-19T06:26:35.756Z,53.40
2017-07-19T06:29:02.349Z,53.40
2017-07-19T06:31:30.636Z,53.50
2017-07-19T06:33:57.257Z,53.70
2017-07-19T06:36:23.672Z,53.90
2017-07-19T06:38:50.237Z,53.80
2017-07-19T06:41:16.815Z,53.40
2017-07-19T06:43:44.297Z,52.50
2017-07-19T06:46:10.844Z,52.40
2017-07-19T06:48:37.450Z,52.60
2017-07-19T06:51:04.770Z,52.90
2017-07-19T06:53:31.321Z,52.80
2017-07-19T06:55:57.889Z,52.60
2017-07-19T06:58:24.497Z,52.90
2017-07-19T07:00:51.116Z,52.70
2017-07-19T07:03:17.600Z,52.40
2017-07-19T07:05:44.905Z,53.10
2017-07-19T07:08:11.471Z,52.80
2017-07-19T07:10:37.998Z,51.50
2017-07-19T07:13:04.597Z,51.00
2017-07-19T07:15:31.918Z,50.40
2017-07-19T07:17:58.483Z,50.40
2017-07-19T07:20:25.025Z,49.80
2017-07-19T07:22:52.746Z,49.30
2017-07-19T07:25:19.233Z,50.80
2017-07-19T07:27:46.550Z,49.60
2017-07-19T07:30:13.100Z,49.60
2017-07-19T07:32:39.694Z,49.60
2017-07-19T07:35:06.356Z,50.40
2017-07-19T07:37:32.840Z,48.70
2017-07-19T07:39:59.401Z,47.90
2017-07-19T07:42:27.024Z,46.70
2017-07-19T07:44:53.592Z,45.30
2017-07-19T07:47:20.056Z,45.30
2017-07-19T07:49:46.614Z,44.60
2017-07-19T07:52:13.213Z,42.80
2017-07-19T07:54:40.325Z,43.20
2017-07-19T07:57:06.880Z,42.30
2017-07-19T07:59:33.496Z,42.50
2017-07-19T08:02:03.455Z,40.60
2017-07-19T08:04:30.770Z,43.20
2017-07-19T08:06:57.239Z,42.50
2017-07-19T08:09:23.815Z,41.20
2017-07-19T08:11:50.402Z,42.40
2017-07-19T08:14:16.943Z,42.10
2017-07-19T08:16:44.298Z,41.50
2017-07-19T08:19:10.748Z,40.90
2017-07-19T08:21:37.277Z,38.00
2017-07-19T08:24:04.560Z,35.40
2017-07-19T08:26:31.089Z,35.30
2017-07-19T08:28:57.641Z,34.70
2017-07-19T08:31:24.205Z,31.30
2017-07-19T08:33:50.791Z,30.90
2017-07-19T08:36:17.422Z,30.20
2017-07-19T08:38:44.774Z,29.40
2017-07-19T08:41:11.293Z,29.10
2017-07-19T08:43:38.683Z,27.40
2017-07-19T08:46:05.260Z,27.40
2017-07-19T08:48:31.876Z,27.60
2017-07-19T08:50:58.424Z,27.80
2017-07-19T08:53:24.952Z,27.60
2017-07-19T08:55:52.306Z,27.20
2017-07-19T08:58:18.940Z,27.20
2017-07-19T09:00:45.565Z,29.30
2017-07-19T09:03:12.864Z,30.80
2017-07-19T09:05:39.439Z,30.80
2017-07-19T09:08:06.013Z,32.90
2017-07-19T09:10:35.607Z,33.30
2017-07-19T09:13:02.173Z,33.20
2017-07-19T09:15:28.813Z,33.00
2017-07-19T09:17:55.416Z,32.70
2017-07-19T09:20:22.050Z,32.80
2017-07-19T09:22:48.644Z,33.30
2017-07-19T09:25:18.469Z,35.30
2017-07-19T09:27:45.057Z,36.30
2017-07-19T09:30:11.666Z,33.50
2017-07-19T09:32:38.139Z,34.60
2017-07-19T09:35:04.714Z,33.50
2017-07-19T09:37:31.306Z,33.60
2017-07-19T09:39:57.877Z,35.10
2017-07-19T09:42:24.504Z,35.00
2017-07-19T09:44:51.088Z,36.00
2017-07-19T09:47:17.752Z,34.80
2017-07-19T09:49:44.280Z,33.60
2017-07-19T09:52:10.812Z,36.00
2017-07-19T09:54:37.386Z,34.40
2017-07-19T09:57:03.960Z,35.30
2017-07-19T10:02:01.989Z,33.60
2017-07-19T10:04:28.588Z,31.40
2017-07-19T10:06:55.158Z,34.00
2017-07-19T10:09:21.757Z,35.40
2017-07-19T10:11:48.284Z,32.10
2017-07-19T10:14:14.884Z,31.40
2017-07-19T10:16:41.465Z,31.30
2017-07-19T10:19:08.086Z,33.10
2017-07-19T10:21:34.662Z,33.70
2017-07-19T10:24:01.117Z,31.60
2017-07-19T10:26:27.694Z,33.60
2017-07-19T10:28:54.686Z,32.10
2017-07-19T10:31:21.363Z,31.80
2017-07-19T10:33:48.657Z,32.60
2017-07-19T10:36:16.011Z,31.80
2017-07-19T10:38:43.355Z,31.00
2017-07-19T10:41:09.956Z,30.90
2017-07-19T10:43:40.205Z,32.30
2017-07-19T10:46:06.784Z,31.50
2017-07-19T10:48:34.126Z,32.10
2017-07-19T10:51:00.678Z,32.00
2017-07-19T10:53:27.256Z,32.10
2017-07-19T10:55:54.559Z,31.50
2017-07-19T10:58:21.171Z,31.50
2017-07-19T11:00:47.764Z,32.00
2017-07-19T11:03:14.377Z,31.30
2017-07-19T11:05:40.933Z,32.20
2017-07-19T11:08:09.178Z,33.40
2017-07-19T11:10:35.731Z,33.30
2017-07-19T11:13:02.304Z,32.20
2017-07-19T11:15:28.876Z,32.80
2017-07-19T11:17:55.430Z,32.90
2017-07-19T11:20:22.749Z,31.30
2017-07-19T11:22:49.321Z,31.30
2017-07-19T11:25:16.720Z,32.50
2017-07-19T11:27:43.307Z,30.60
2017-07-19T11:30:09.905Z,31.70
2017-07-19T11:32:40.265Z,30.30
2017-07-19T11:35:06.830Z,31.00
2017-07-19T11:37:33.413Z,29.70
2017-07-19T11:39:59.742Z,29.20
2017-07-19T11:42:26.435Z,30.60
2017-07-19T11:44:52.764Z,31.20
2017-07-19T11:47:20.164Z,30.00
2017-07-19T11:49:46.498Z,29.50
2017-07-19T11:52:12.839Z,29.90
2017-07-19T11:54:39.168Z,31.50
2017-07-19T11:57:05.544Z,31.40
2017-07-19T11:59:32.081Z,28.70
2017-07-19T12:01:58.703Z,29.60
2017-07-19T12:04:27.232Z,29.80
2017-07-19T12:06:53.603Z,30.00
2017-07-19T12:09:19.938Z,29.60
2017-07-19T12:11:46.340Z,28.30
2017-07-19T12:14:12.921Z,29.40
2017-07-19T12:16:39.488Z,29.60
2017-07-19T12:19:10.474Z,28.40
2017-07-19T12:21:37.811Z,28.70
2017-07-19T12:24:04.366Z,28.70
2017-07-19T12:26:30.993Z,30.00
2017-07-19T12:28:57.619Z,29.30
2017-07-19T12:31:24.948Z,28.30
2017-07-19T12:33:53.911Z,28.30
2017-07-19T12:36:20.396Z,29.70
2017-07-19T12:38:46.750Z,29.60
2017-07-19T12:41:13.089Z,29.10
2017-07-19T12:43:39.451Z,28.70
2017-07-19T12:46:06.023Z,29.30
2017-07-19T12:48:32.613Z,28.80
2017-07-19T12:51:00.521Z,29.30
2017-07-19T12:53:26.897Z,29.30
2017-07-19T12:55:53.260Z,29.70
2017-07-19T12:58:19.621Z,28.50
2017-07-19T13:00:45.937Z,29.30
2017-07-19T13:03:12.277Z,29.20
2017-07-19T13:05:46.201Z,28.10
2017-07-19T13:08:12.556Z,28.10
2017-07-19T13:10:38.908Z,28.10
2017-07-19T13:13:05.307Z,28.50
2017-07-19T13:15:31.624Z,29.30
2017-07-19T13:17:57.956Z,30.30
2017-07-19T13:20:24.264Z,28.60
2017-07-19T13:22:51.389Z,28.10
2017-07-19T13:25:18.402Z,28.30
2017-07-19T13:27:44.765Z,29.80
2017-07-19T13:30:11.161Z,29.10
2017-07-19T13:32:37.548Z,29.10
2017-07-19T13:35:03.905Z,28.20
2017-07-19T13:37:30.221Z,30.20
2017-07-19T13:39:56.560Z,29.50
2017-07-19T13:42:23.632Z,28.50
2017-07-19T13:44:50.825Z,28.50
2017-07-19T13:47:17.169Z,30.00
2017-07-19T13:49:43.489Z,29.50
2017-07-19T13:52:09.813Z,30.00
2017-07-19T13:54:36.116Z,29.30
2017-07-19T13:57:02.428Z,28.90
2017-07-19T13:59:28.764Z,29.90
2017-07-19T14:01:55.139Z,30.30
2017-07-19T14:04:21.501Z,28.50
2017-07-19T14:06:47.881Z,28.90
2017-07-19T14:09:14.212Z,29.00
2017-07-19T14:11:40.548Z,29.90
2017-07-19T14:14:06.856Z,29.00
2017-07-19T14:16:33.165Z,29.60
2017-07-19T14:18:59.511Z,28.60
2017-07-19T14:21:25.842Z,30.10
2017-07-19T14:24:00.092Z,29.70
2017-07-19T14:26:26.532Z,29.70
2017-07-19T14:28:52.854Z,30.40
2017-07-19T14:31:19.961Z,30.70
2017-07-19T14:33:46.298Z,30.70
2017-07-19T14:36:12.639Z,30.30
2017-07-19T14:38:41.674Z,30.90
2017-07-19T14:41:08.038Z,31.10
2017-07-19T14:43:34.367Z,28.80
2017-07-19T14:46:00.681Z,30.80
2017-07-19T14:48:27.019Z,33.40
2017-07-19T14:50:53.340Z,34.30
2017-07-19T14:53:19.673Z,35.10
2017-07-19T14:55:45.976Z,37.20
2017-07-19T14:58:12.292Z,40.30
2017-07-19T15:00:38.603Z,42.80
2017-07-19T15:03:05.218Z,45.30
2017-07-19T15:05:31.648Z,46.60
2017-07-19T15:07:58.741Z,49.30
2017-07-19T15:10:25.092Z,49.20
2017-07-19T15:12:51.620Z,52.00
2017-07-19T15:15:18.198Z,53.00
2017-07-19T15:17:44.688Z,53.50
2017-07-19T15:20:11.265Z,55.10
2017-07-19T15:22:37.827Z,55.40
2017-07-19T15:25:04.165Z,57.30
2017-07-19T15:27:30.734Z,58.00
2017-07-19T15:29:57.275Z,56.10
2017-07-19T15:32:23.832Z,57.70
2017-07-19T15:34:50.408Z,59.80
2017-07-19T15:37:16.955Z,60.00
2017-07-19T15:39:43.538Z,61.00
2017-07-19T15:42:10.844Z,61.70
2017-07-19T15:44:37.191Z,61.70
2017-07-19T15:47:03.508Z,60.10
2017-07-19T15:49:30.089Z,61.20
2017-07-19T15:52:01.329Z,61.50
2017-07-19T15:54:27.675Z,60.50
2017-07-19T15:56:53.984Z,62.40
2017-07-19T15:59:20.317Z,64.70
2017-07-19T16:01:46.649Z,63.80
2017-07-19T16:04:12.956Z,64.00
2017-07-19T16:06:40.056Z,64.60
2017-07-19T16:09:06.398Z,64.60
2017-07-19T16:11:37.522Z,64.60
2017-07-19T16:14:03.898Z,65.10
2017-07-19T16:16:30.950Z,64.50
2017-07-19T16:18:58.008Z,64.30
2017-07-19T16:21:24.355Z,64.10
2017-07-19T16:23:50.744Z,64.20
2017-07-19T16:26:17.077Z,64.10
2017-07-19T16:28:46.968Z,65.60
2017-07-19T16:31:13.306Z,64.90
2017-07-19T16:33:39.661Z,68.30
2017-07-19T16:36:06.080Z,67.90
2017-07-19T16:38:32.395Z,68.30
2017-07-19T16:40:58.726Z,67.80
2017-07-19T16:43:25.052Z,68.50
2017-07-19T16:45:53.287Z,66.80
2017-07-19T16:48:19.678Z,68.60
2017-07-19T16:50:46.032Z,67.30
2017-07-19T16:53:12.368Z,68.10
2017-07-19T16:55:38.749Z,66.40
2017-07-19T16:58:05.072Z,68.50
2017-07-19T17:00:31.397Z,68.90
2017-07-19T17:02:58.502Z,68.50
2017-07-19T17:05:24.824Z,69.00
2017-07-19T17:07:53.013Z,67.90
2017-07-19T17:10:19.394Z,68.00
2017-07-19T17:12:45.832Z,69.20
2017-07-19T17:15:12.171Z,67.00
2017-07-19T17:17:38.602Z,68.10
2017-07-19T17:20:04.965Z,69.80
2017-07-19T17:22:33.344Z,69.40
2017-07-19T17:25:02.790Z,68.50
2017-07-19T17:27:29.774Z,69.10
2017-07-19T17:29:56.200Z,69.70
2017-07-19T17:32:22.694Z,67.80
2017-07-19T17:34:49.038Z,68.20
2017-07-19T17:37:15.454Z,68.80
2017-07-19T17:39:42.589Z,68.10
2017-07-19T17:42:09.547Z,68.00
2017-07-19T17:44:35.930Z,68.60
2017-07-19T17:47:02.281Z,68.00
2017-07-19T17:49:28.694Z,68.10
2017-07-19T17:51:55.059Z,67.20
2017-07-19T17:54:21.448Z,69.50
2017-07-19T17:56:47.828Z,69.10
2017-07-19T17:59:14.236Z,69.10
2017-07-19T18:01:40.745Z,67.40
2017-07-19T18:04:07.279Z,68.90
2017-07-19T18:06:33.677Z,69.20
2017-07-19T18:09:01.244Z,68.00
2017-07-19T18:11:28.449Z,67.70
2017-07-19T18:13:54.784Z,68.50
2017-07-19T18:16:21.162Z,68.70
2017-07-19T18:18:47.512Z,69.10
2017-07-19T18:21:14.964Z,68.90
2017-07-19T18:23:41.945Z,68.90
2017-07-19T18:26:08.301Z,69.00
2017-07-19T18:28:34.621Z,69.00
2017-07-19T18:31:00.957Z,69.40
2017-07-19T18:33:27.319Z,68.30
2017-07-19T18:35:53.692Z,69.30
2017-07-19T18:38:22.289Z,69.40
2017-07-19T18:40:48.795Z,67.70
2017-07-19T18:43:15.173Z,68.70
2017-07-19T18:45:41.521Z,67.90
2017-07-19T18:48:07.849Z,69.60
2017-07-19T18:50:34.211Z,69.20
2017-07-19T18:53:01.280Z,69.10
2017-07-19T18:55:27.671Z,68.90
2017-07-19T18:57:54.101Z,69.10
2017-07-19T19:00:20.453Z,66.90
2017-07-19T19:02:46.796Z,67.00
2017-07-19T19:05:13.221Z,68.40
2017-07-19T19:07:39.581Z,67.60
2017-07-19T19:10:05.885Z,67.80
2017-07-19T19:12:32.259Z,68.20
2017-07-19T19:14:58.782Z,68.60
2017-07-19T19:17:25.153Z,66.70
2017-07-19T19:19:51.456Z,68.30
2017-07-19T19:22:23.867Z,68.10
2017-07-19T19:24:50.198Z,67.10
2017-07-19T19:27:16.530Z,66.20
2017-07-19T19:29:42.829Z,67.30
2017-07-19T19:32:09.251Z,68.10
2017-07-19T19:34:36.377Z,66.70
2017-07-19T19:37:03.486Z,68.90
2017-07-19T19:39:29.824Z,69.00
2017-07-19T19:41:56.194Z,68.90
2017-07-19T19:44:23.112Z,68.90
2017-07-19T19:46:50.018Z,69.20
2017-07-19T19:49:16.379Z,69.20
2017-07-19T19:51:42.737Z,69.20
2017-07-19T19:54:09.144Z,69.50
2017-07-19T19:56:35.533Z,69.60
2017-07-19T19:59:01.921Z,69.20
2017-07-19T20:01:28.370Z,69.30
2017-07-19T20:03:54.777Z,69.00
2017-07-19T20:06:21.137Z,69.20
2017-07-19T20:08:49.311Z,69.10
2017-07-19T20:11:16.802Z,68.90
2017-07-19T20:13:43.350Z,68.90
2017-07-19T20:16:09.705Z,69.20
2017-07-19T20:18:36.777Z,69.10
2017-07-19T20:21:03.146Z,68.80
2017-07-19T20:23:30.878Z,68.60
2017-07-19T20:25:59.008Z,68.50
2017-07-19T20:28:25.351Z,68.50
2017-07-19T20:30:51.712Z,67.90
2017-07-19T20:33:18.094Z,68.30
2017-07-19T20:35:44.460Z,67.90
2017-07-19T20:38:10.804Z,67.90
2017-07-19T20:40:37.218Z,68.60
2017-07-19T20:43:03.641Z,68.30
2017-07-19T20:45:30.006Z,68.50
2017-07-19T20:47:56.336Z,68.60
2017-07-19T20:50:22.660Z,68.40
2017-07-19T20:52:49.000Z,68.10
2017-07-19T20:55:15.346Z,68.20
2017-07-19T20:57:42.131Z,67.90
2017-07-19T21:00:08.643Z,68.00
2017-07-19T21:02:35.062Z,68.40
2017-07-19T21:05:01.425Z,68.70
2017-07-19T21:07:27.781Z,68.70
2017-07-19T21:09:54.154Z,68.20
2017-07-19T21:12:20.560Z,68.00
2017-07-19T21:14:47.633Z,68.50
2017-07-19T21:17:14.273Z,68.50
2017-07-19T21:19:40.845Z,68.70
2017-07-19T21:22:07.208Z,68.10
2017-07-19T21:24:33.605Z,68.00
2017-07-19T21:26:59.998Z,68.20
2017-07-19T21:29:26.417Z,68.20
2017-07-19T21:31:52.945Z,68.50
2017-07-19T21:34:22.929Z,68.60
2017-07-19T21:36:50.004Z,68.00
2017-07-19T21:39:16.928Z,68.00
2017-07-19T21:41:45.026Z,67.90
2017-07-19T21:44:11.365Z,67.80
2017-07-19T21:46:37.757Z,68.30
2017-07-19T21:49:04.868Z,68.00
2017-07-19T21:51:31.174Z,67.90
2017-07-19T21:53:57.521Z,68.00
2017-07-19T21:56:23.872Z,68.10
2017-07-19T21:58:50.240Z,67.70
2017-07-19T22:01:16.576Z,67.60
2017-07-19T22:03:42.944Z,67.60
2017-07-19T22:06:10.313Z,68.10
2017-07-19T22:08:36.657Z,68.00
2017-07-19T22:11:03.018Z,68.90
2017-07-19T22:13:29.365Z,68.40
2017-07-19T22:15:55.689Z,67.70
2017-07-19T22:18:22.059Z,68.40
2017-07-19T22:20:48.422Z,68.90
2017-07-19T22:23:14.743Z,68.80
2017-07-19T22:25:41.087Z,68.90
2017-07-19T22:28:07.428Z,68.90
2017-07-19T22:30:36.956Z,68.20
2017-07-19T22:33:03.355Z,68.80
2017-07-19T22:35:29.722Z,69.40
2017-07-19T22:37:56.071Z,69.00
2017-07-19T22:40:22.415Z,68.60
2017-07-19T22:42:48.751Z,68.60
2017-07-19T22:45:15.081Z,70.10
2017-07-19T22:47:43.801Z,69.90
2017-07-19T22:50:10.164Z,69.70
2017-07-19T22:52:36.506Z,69.50
2017-07-19T22:55:02.843Z,69.90
2017-07-19T22:57:29.928Z,69.00
2017-07-19T22:59:56.270Z,69.10
2017-07-19T23:02:22.666Z,70.10
2017-07-19T23:04:49.014Z,69.80
2017-07-19T23:07:18.441Z,70.10
2017-07-19T23:09:45.705Z,69.00
2017-07-19T23:12:12.076Z,69.70
2017-07-19T23:14:38.445Z,69.80
2017-07-19T23:17:04.783Z,69.90
2017-07-19T23:19:31.104Z,69.70
2017-07-19T23:21:57.510Z,69.80
2017-07-19T23:24:23.877Z,68.90
2017-07-19T23:26:53.349Z,69.70
2017-07-19T23:29:19.705Z,69.90
2017-07-19T23:31:46.163Z,69.80
2017-07-19T23:34:13.306Z,69.70
2017-07-19T23:36:39.805Z,69.70
2017-07-19T23:39:06.237Z,70.10
2017-07-19T23:41:36.260Z,69.80
2017-07-19T23:44:02.573Z,70.10
2017-07-19T23:46:28.883Z,70.00
2017-07-19T23:48:55.989Z,69.10
2017-07-19T23:51:22.313Z,69.10
2017-07-19T23:53:48.663Z,69.30
2017-07-19T23:56:15.765Z,69.40
2017-07-19T23:58:42.098Z,69.40
